Irmgard — A8YT9 — position and weather

sailwx.info

Track history (hours):
 
Tides and Currents Weather Stations Pressure Air Temp Water Temp Dewpoint Dewpoint Depression Visibility Wind Speed Wind Dir Waves Ship Positions

Irmgard

Last reported at 2018-Feb-20 09:53 UTC. Time now 2018-Feb-20 21:50 UTC.
Position N 44°31' E 012°28'.

Length 180 m; draft 6.6 m.

Type: Cargo ship. MMSI: 636092220.

Date/timePositionNaut miles runAvg speedWind from/ knotsBaromVisibWave heightAir tempDewpointWater temp
2018-Feb-20 09:53N 44°31' E 012°28'1 0.0
2018-Feb-18 14:48N 44°31' E 012°29'0 0.1
2018-Feb-18 13:33N 44°31' E 012°30'0 0.0
2018-Feb-17 18:48N 44°31' E 012°30'0 0.0
2018-Feb-17 17:33N 44°31' E 012°30'0 0.0
2018-Feb-17 17:30N 44°31' E 012°30'8 4.9
2018-Feb-17 15:49N 44°32' E 012°41'1313.7
2018-Feb-17 14:53N 44°43' E 012°50'513.8
2018-Feb-17 14:30N 44°47' E 012°54'713.8
2018-Feb-17 14:00N 44°53' E 012°59'713.7
2018-Feb-17 13:31N 44°59' E 013°04'713.7
2018-Feb-17 13:00N 45°06' E 013°02'714.0
2018-Feb-17 12:30N 45°13' E 013°00'713.8
2018-Feb-17 12:00N 45°19' E 012°58'611.5
2018-Feb-17 11:30N 45°25' E 013°02'713.7
2018-Feb-17 11:00N 45°29' E 013°09'713.8
2018-Feb-17 10:30N 45°33' E 013°17'713.8
2018-Feb-17 10:01N 45°36' E 013°26'713.6
2018-Feb-17 09:30N 45°39' E 013°35'510.8
2018-Feb-17 09:00N 45°44' E 013°36'4 7.1
2018-Feb-17 08:30N 45°47' E 013°33'0 0.0
2018-Feb-17 08:00N 45°47' E 013°33'0 0.0
2018-Feb-17 07:30N 45°47' E 013°33'0 0.0
2018-Feb-17 06:57N 45°47' E 013°33'0 0.0
2018-Feb-17 06:27N 45°47' E 013°33'0 0.0
2018-Feb-17 05:54N 45°47' E 013°33'0 0.0
2018-Feb-17 05:30N 45°47' E 013°33'0 0.0
2018-Feb-17 05:00N 45°47' E 013°33'0 0.0
2018-Feb-17 04:30N 45°47' E 013°33'0 0.0
2018-Feb-17 04:00N 45°47' E 013°33'0 0.0
2018-Feb-17 03:30N 45°47' E 013°33'0 0.0
2018-Feb-17 02:57N 45°47' E 013°33'0 0.0
2018-Feb-17 02:30N 45°47' E 013°33'0 0.0
2018-Feb-17 02:00N 45°47' E 013°33'0 0.0
2018-Feb-17 01:24N 45°47' E 013°33'0 0.0
2018-Feb-17 01:00N 45°47' E 013°33'0 0.0
2018-Feb-17 00:30N 45°47' E 013°33'0 0.0
2018-Feb-17 00:00N 45°47' E 013°33'0 0.0
2018-Feb-16 23:27N 45°47' E 013°33'0 0.0
2018-Feb-16 22:57N 45°47' E 013°33'0 0.0
2018-Feb-16 22:24N 45°47' E 013°33'0 0.0
2018-Feb-16 21:48N 45°47' E 013°33'0 0.0
2018-Feb-16 21:27N 45°47' E 013°33'0 0.0
2018-Feb-16 20:57N 45°47' E 013°33'0 0.0
2018-Feb-16 20:27N 45°47' E 013°33'0 0.0
2018-Feb-16 19:48N 45°47' E 013°33'0 0.0
2018-Feb-16 19:21N 45°47' E 013°33'0 0.0
2018-Feb-16 18:57N 45°47' E 013°33'0 0.0
2018-Feb-16 18:30N 45°47' E 013°33'0 0.0
2018-Feb-16 17:57N 45°47' E 013°33'0 0.0
2018-Feb-16 17:27N 45°47' E 013°33'0 0.0
2018-Feb-16 16:54N 45°47' E 013°33'0 0.0
2018-Feb-16 16:24N 45°47' E 013°33'0 0.0
2018-Feb-16 15:57N 45°47' E 013°33'0 0.0
2018-Feb-16 15:06N 45°47' E 013°33'0 0.0
2018-Feb-16 14:57N 45°47' E 013°33'0 0.0
2018-Feb-16 13:45N 45°47' E 013°33'0 0.0
2018-Feb-16 13:24N 45°47' E 013°33'0 0.0
2018-Feb-16 12:39N 45°47' E 013°33'0 0.0
2018-Feb-16 12:27N 45°47' E 013°33'0 0.0
2018-Feb-16 11:27N 45°47' E 013°33'0 0.0
2018-Feb-16 10:57N 45°47' E 013°33'0 0.0
2018-Feb-16 10:27N 45°47' E 013°33'0 0.0
2018-Feb-16 10:00N 45°47' E 013°33'0 0.0
2018-Feb-16 09:30N 45°47' E 013°33'0 0.0
2018-Feb-16 09:00N 45°47' E 013°33'0 0.0
2018-Feb-16 08:30N 45°47' E 013°33'0 0.0
2018-Feb-16 07:59N 45°47' E 013°33'0 0.0
2018-Feb-16 07:30N 45°47' E 013°33'0 0.0
2018-Feb-16 07:00N 45°47' E 013°33'0 0.0
2018-Feb-16 06:28N 45°47' E 013°33'0 0.0
2018-Feb-16 06:00N 45°47' E 013°33'1 1.5
2018-Feb-16 05:30N 45°46' E 013°34'4 7.2
2018-Feb-16 05:00N 45°44' E 013°38'0 0.5
2018-Feb-16 04:28N 45°44' E 013°38'0 0.1
2018-Feb-16 03:58N 45°44' E 013°38'0 0.1
2018-Feb-16 03:28N 45°44' E 013°38'0 0.0
2018-Feb-16 02:58N 45°44' E 013°38'0 0.0
2018-Feb-16 02:25N 45°44' E 013°38'0 0.0
2018-Feb-16 01:55N 45°44' E 013°38'0 0.0
2018-Feb-16 01:28N 45°44' E 013°38'0 0.0
2018-Feb-16 00:58N 45°44' E 013°38'0 0.1
2018-Feb-16 00:28N 45°44' E 013°38'0 0.0
2018-Feb-15 23:58N 45°44' E 013°38'0 0.0
2018-Feb-15 23:19N 45°44' E 013°38'0 0.0
2018-Feb-15 22:58N 45°44' E 013°38'0 0.0
2018-Feb-15 22:28N 45°44' E 013°38'0 0.0
2018-Feb-15 21:58N 45°44' E 013°38'0 0.1
2018-Feb-15 21:16N 45°44' E 013°38'0 0.4
2018-Feb-15 21:00N 45°44' E 013°38'4 8.8
2018-Feb-15 20:30N 45°39' E 013°38'613.0
2018-Feb-15 20:00N 45°35' E 013°32'713.7
2018-Feb-15 19:30N 45°31' E 013°23'713.8
2018-Feb-15 19:00N 45°28' E 013°15'713.8
2018-Feb-15 18:30N 45°25' E 013°06'713.8
2018-Feb-15 18:00N 45°22' E 012°57'713.8
2018-Feb-15 17:30N 45°19' E 012°48'713.9
2018-Feb-15 17:00N 45°16' E 012°39'612.8
2018-Feb-15 16:30N 45°15' E 012°30'612.6
2018-Feb-15 16:00N 45°19' E 012°23'610.6
2018-Feb-15 15:27N 45°21' E 012°16'4 8.2
2018-Feb-15 14:59N 45°25' E 012°16'2 4.5
2018-Feb-15 14:30N 45°27' E 012°15'1 1.1
2018-Feb-15 13:59N 45°27' E 012°14'0 0.0
2018-Feb-15 13:29N 45°27' E 012°14'0 0.0
2018-Feb-15 12:59N 45°27' E 012°14'0 0.0
2018-Feb-15 12:29N 45°27' E 012°14'0 0.0
2018-Feb-15 11:56N 45°27' E 012°14'0 0.0
2018-Feb-15 11:29N 45°27' E 012°14'0 0.0
2018-Feb-15 10:59N 45°27' E 012°14'0 0.0
2018-Feb-15 10:29N 45°27' E 012°14'0 0.0
2018-Feb-15 09:59N 45°27' E 012°14'0 0.0
2018-Feb-15 09:29N 45°27' E 012°14'0 0.0
2018-Feb-15 08:20N 45°27' E 012°14'0 0.0
2018-Feb-15 07:59N 45°27' E 012°14'0 0.0
2018-Feb-15 07:29N 45°27' E 012°14'0 0.0
2018-Feb-15 06:56N 45°27' E 012°14'0 0.0
2018-Feb-15 06:23N 45°27' E 012°14'0 0.0
2018-Feb-15 05:59N 45°27' E 012°14'0 0.0
2018-Feb-15 05:29N 45°27' E 012°14'0 0.0
2018-Feb-15 04:59N 45°27' E 012°14'0 0.0
2018-Feb-15 04:29N 45°27' E 012°14'0 0.0
2018-Feb-15 03:59N 45°27' E 012°14'0 0.0
2018-Feb-15 03:29N 45°27' E 012°14'0 0.0
2018-Feb-15 02:59N 45°27' E 012°14'0 0.0
2018-Feb-15 02:29N 45°27' E 012°14'0 0.0
2018-Feb-15 01:59N 45°27' E 012°14'0 0.0
2018-Feb-15 01:29N 45°27' E 012°14'0 0.0
2018-Feb-15 00:59N 45°27' E 012°14'0 0.0
2018-Feb-15 00:26N 45°27' E 012°14'0 0.0
2018-Feb-14 23:59N 45°27' E 012°14'0 0.0
2018-Feb-14 23:29N 45°27' E 012°14'0 0.0
2018-Feb-14 22:59N 45°27' E 012°14'0 0.0
2018-Feb-14 22:29N 45°27' E 012°14'0 0.0
2018-Feb-14 21:59N 45°27' E 012°14'0 0.0
2018-Feb-14 21:29N 45°27' E 012°14'0 0.0
2018-Feb-14 20:59N 45°27' E 012°14'0 0.0
2018-Feb-14 20:29N 45°27' E 012°14'0 0.0
2018-Feb-14 19:59N 45°27' E 012°14'0 0.0
2018-Feb-14 19:29N 45°27' E 012°14'0 0.0
2018-Feb-14 18:59N 45°27' E 012°14'0 0.0
2018-Feb-14 18:29N 45°27' E 012°14'0 0.0
2018-Feb-14 17:56N 45°27' E 012°14'0 0.0
2018-Feb-14 17:29N 45°27' E 012°14'0 0.0
2018-Feb-14 16:59N 45°27' E 012°14'0 0.0
2018-Feb-14 16:26N 45°27' E 012°14'0 0.0
2018-Feb-14 15:59N 45°27' E 012°14'0 0.0
2018-Feb-14 15:29N 45°27' E 012°14'0 0.0
2018-Feb-14 14:59N 45°27' E 012°14'0 0.0
2018-Feb-14 14:29N 45°27' E 012°14'0 0.0
2018-Feb-14 13:59N 45°27' E 012°14'0 0.0
2018-Feb-14 13:29N 45°27' E 012°14'0 0.0
2018-Feb-14 12:59N 45°27' E 012°14'0 0.0
2018-Feb-14 12:29N 45°27' E 012°14'0 0.0
2018-Feb-14 11:59N 45°27' E 012°14'0 0.0
2018-Feb-14 11:29N 45°27' E 012°14'0 0.0
2018-Feb-14 10:59N 45°27' E 012°14'0 0.0
2018-Feb-14 10:29N 45°27' E 012°14'0 0.0
2018-Feb-14 09:59N 45°27' E 012°14'0 0.0
2018-Feb-14 09:26N 45°27' E 012°14'0 0.0
2018-Feb-14 08:59N 45°27' E 012°14'0 0.0
2018-Feb-14 08:29N 45°27' E 012°14'0 0.0
2018-Feb-14 07:59N 45°27' E 012°14'0 0.0
2018-Feb-14 07:30N 45°27' E 012°14'1 2.5
2018-Feb-14 07:00N 45°27' E 012°16'3 6.5
2018-Feb-14 06:30N 45°24' E 012°16'4 7.8
2018-Feb-14 06:00N 45°20' E 012°19'510.8
2018-Feb-14 05:30N 45°18' E 012°26'4 8.0
2018-Feb-14 04:59N 45°17' E 012°31'2 5.1
2018-Feb-14 04:30N 45°18' E 012°34'2 3.0
2018-Feb-14 04:00N 45°19' E 012°36'0 0.5
2018-Feb-14 03:30N 45°19' E 012°37'0 0.4
2018-Feb-14 03:00N 45°19' E 012°37'0 0.4
2018-Feb-14 02:30N 45°18' E 012°37'1 1.0
2018-Feb-14 02:00N 45°18' E 012°36'2 3.9
2018-Feb-14 01:30N 45°19' E 012°33'3 6.6
2018-Feb-14 01:00N 45°16' E 012°33'611.7
2018-Feb-14 00:30N 45°12' E 012°40'612.7
2018-Feb-14 00:00N 45°08' E 012°47'612.5
2018-Feb-13 23:30N 45°03' E 012°52'612.3
2018-Feb-13 23:00N 44°57' E 012°55'612.5
2018-Feb-13 22:30N 44°51' E 012°58'612.7
2018-Feb-13 22:00N 44°46' E 013°02'612.6
2018-Feb-13 21:30N 44°40' E 013°05'612.7
2018-Feb-13 21:00N 44°34' E 013°08'612.6
2018-Feb-13 20:30N 44°28' E 013°10'  
Track history (hours):
 
Tides and Currents Weather Stations Pressure Air Temp Water Temp Dewpoint Dewpoint Depression Visibility Wind Speed Wind Dir Waves Ship Positions

Irmgard

Last reported at 2018-Feb-20 09:53 UTC. Time now 2018-Feb-20 21:50 UTC.
Position N 44°31' E 012°28'.

Length 180 m; draft 6.6 m.

Type: Cargo ship. MMSI: 636092220.

Date/timePositionNaut miles runAvg speedWind from/ knotsBaromVisibWave heightAir tempDewpointWater temp
2018-Feb-20 09:53N 44°31' E 012°28'1 0.0
2018-Feb-18 14:48N 44°31' E 012°29'0 0.1
2018-Feb-18 13:33N 44°31' E 012°30'0 0.0
2018-Feb-17 18:48N 44°31' E 012°30'0 0.0
2018-Feb-17 17:33N 44°31' E 012°30'0 0.0
2018-Feb-17 17:30N 44°31' E 012°30'8 4.9
2018-Feb-17 15:49N 44°32' E 012°41'1313.7
2018-Feb-17 14:53N 44°43' E 012°50'513.8
2018-Feb-17 14:30N 44°47' E 012°54'713.8
2018-Feb-17 14:00N 44°53' E 012°59'713.7
2018-Feb-17 13:31N 44°59' E 013°04'713.7
2018-Feb-17 13:00N 45°06' E 013°02'714.0
2018-Feb-17 12:30N 45°13' E 013°00'713.8
2018-Feb-17 12:00N 45°19' E 012°58'611.5
2018-Feb-17 11:30N 45°25' E 013°02'713.7
2018-Feb-17 11:00N 45°29' E 013°09'713.8
2018-Feb-17 10:30N 45°33' E 013°17'713.8
2018-Feb-17 10:01N 45°36' E 013°26'713.6
2018-Feb-17 09:30N 45°39' E 013°35'510.8
2018-Feb-17 09:00N 45°44' E 013°36'4 7.1
2018-Feb-17 08:30N 45°47' E 013°33'0 0.0
2018-Feb-17 08:00N 45°47' E 013°33'0 0.0
2018-Feb-17 07:30N 45°47' E 013°33'0 0.0
2018-Feb-17 06:57N 45°47' E 013°33'0 0.0
2018-Feb-17 06:27N 45°47' E 013°33'0 0.0
2018-Feb-17 05:54N 45°47' E 013°33'0 0.0
2018-Feb-17 05:30N 45°47' E 013°33'0 0.0
2018-Feb-17 05:00N 45°47' E 013°33'0 0.0
2018-Feb-17 04:30N 45°47' E 013°33'0 0.0
2018-Feb-17 04:00N 45°47' E 013°33'0 0.0
2018-Feb-17 03:30N 45°47' E 013°33'0 0.0
2018-Feb-17 02:57N 45°47' E 013°33'0 0.0
2018-Feb-17 02:30N 45°47' E 013°33'0 0.0
2018-Feb-17 02:00N 45°47' E 013°33'0 0.0
2018-Feb-17 01:24N 45°47' E 013°33'0 0.0
2018-Feb-17 01:00N 45°47' E 013°33'0 0.0
2018-Feb-17 00:30N 45°47' E 013°33'0 0.0
2018-Feb-17 00:00N 45°47' E 013°33'0 0.0
2018-Feb-16 23:27N 45°47' E 013°33'0 0.0
2018-Feb-16 22:57N 45°47' E 013°33'0 0.0
2018-Feb-16 22:24N 45°47' E 013°33'0 0.0
2018-Feb-16 21:48N 45°47' E 013°33'0 0.0
2018-Feb-16 21:27N 45°47' E 013°33'0 0.0
2018-Feb-16 20:57N 45°47' E 013°33'0 0.0
2018-Feb-16 20:27N 45°47' E 013°33'0 0.0
2018-Feb-16 19:48N 45°47' E 013°33'0 0.0
2018-Feb-16 19:21N 45°47' E 013°33'0 0.0
2018-Feb-16 18:57N 45°47' E 013°33'0 0.0
2018-Feb-16 18:30N 45°47' E 013°33'0 0.0
2018-Feb-16 17:57N 45°47' E 013°33'0 0.0
2018-Feb-16 17:27N 45°47' E 013°33'0 0.0
2018-Feb-16 16:54N 45°47' E 013°33'0 0.0
2018-Feb-16 16:24N 45°47' E 013°33'0 0.0
2018-Feb-16 15:57N 45°47' E 013°33'0 0.0
2018-Feb-16 15:06N 45°47' E 013°33'0 0.0
2018-Feb-16 14:57N 45°47' E 013°33'0 0.0
2018-Feb-16 13:45N 45°47' E 013°33'0 0.0
2018-Feb-16 13:24N 45°47' E 013°33'0 0.0
2018-Feb-16 12:39N 45°47' E 013°33'0 0.0
2018-Feb-16 12:27N 45°47' E 013°33'0 0.0
2018-Feb-16 11:27N 45°47' E 013°33'0 0.0
2018-Feb-16 10:57N 45°47' E 013°33'0 0.0
2018-Feb-16 10:27N 45°47' E 013°33'0 0.0
2018-Feb-16 10:00N 45°47' E 013°33'0 0.0
2018-Feb-16 09:30N 45°47' E 013°33'0 0.0
2018-Feb-16 09:00N 45°47' E 013°33'0 0.0
2018-Feb-16 08:30N 45°47' E 013°33'0 0.0
2018-Feb-16 07:59N 45°47' E 013°33'0 0.0
2018-Feb-16 07:30N 45°47' E 013°33'0 0.0
2018-Feb-16 07:00N 45°47' E 013°33'0 0.0
2018-Feb-16 06:28N 45°47' E 013°33'0 0.0
2018-Feb-16 06:00N 45°47' E 013°33'1 1.5
2018-Feb-16 05:30N 45°46' E 013°34'4 7.2
2018-Feb-16 05:00N 45°44' E 013°38'0 0.5
2018-Feb-16 04:28N 45°44' E 013°38'0 0.1
2018-Feb-16 03:58N 45°44' E 013°38'0 0.1
2018-Feb-16 03:28N 45°44' E 013°38'0 0.0
2018-Feb-16 02:58N 45°44' E 013°38'0 0.0
2018-Feb-16 02:25N 45°44' E 013°38'0 0.0
2018-Feb-16 01:55N 45°44' E 013°38'0 0.0
2018-Feb-16 01:28N 45°44' E 013°38'0 0.0
2018-Feb-16 00:58N 45°44' E 013°38'0 0.1
2018-Feb-16 00:28N 45°44' E 013°38'0 0.0
2018-Feb-15 23:58N 45°44' E 013°38'0 0.0
2018-Feb-15 23:19N 45°44' E 013°38'0 0.0
2018-Feb-15 22:58N 45°44' E 013°38'0 0.0
2018-Feb-15 22:28N 45°44' E 013°38'0 0.0
2018-Feb-15 21:58N 45°44' E 013°38'0 0.1
2018-Feb-15 21:16N 45°44' E 013°38'0 0.4
2018-Feb-15 21:00N 45°44' E 013°38'4 8.8
2018-Feb-15 20:30N 45°39' E 013°38'613.0
2018-Feb-15 20:00N 45°35' E 013°32'713.7
2018-Feb-15 19:30N 45°31' E 013°23'713.8
2018-Feb-15 19:00N 45°28' E 013°15'713.8
2018-Feb-15 18:30N 45°25' E 013°06'713.8
2018-Feb-15 18:00N 45°22' E 012°57'713.8
2018-Feb-15 17:30N 45°19' E 012°48'713.9
2018-Feb-15 17:00N 45°16' E 012°39'612.8
2018-Feb-15 16:30N 45°15' E 012°30'612.6
2018-Feb-15 16:00N 45°19' E 012°23'610.6
2018-Feb-15 15:27N 45°21' E 012°16'4 8.2
2018-Feb-15 14:59N 45°25' E 012°16'2 4.5
2018-Feb-15 14:30N 45°27' E 012°15'1 1.1
2018-Feb-15 13:59N 45°27' E 012°14'0 0.0
2018-Feb-15 13:29N 45°27' E 012°14'0 0.0
2018-Feb-15 12:59N 45°27' E 012°14'0 0.0
2018-Feb-15 12:29N 45°27' E 012°14'0 0.0
2018-Feb-15 11:56N 45°27' E 012°14'0 0.0
2018-Feb-15 11:29N 45°27' E 012°14'0 0.0
2018-Feb-15 10:59N 45°27' E 012°14'0 0.0
2018-Feb-15 10:29N 45°27' E 012°14'0 0.0
2018-Feb-15 09:59N 45°27' E 012°14'0 0.0
2018-Feb-15 09:29N 45°27' E 012°14'0 0.0
2018-Feb-15 08:20N 45°27' E 012°14'0 0.0
2018-Feb-15 07:59N 45°27' E 012°14'0 0.0
2018-Feb-15 07:29N 45°27' E 012°14'0 0.0
2018-Feb-15 06:56N 45°27' E 012°14'0 0.0
2018-Feb-15 06:23N 45°27' E 012°14'0 0.0
2018-Feb-15 05:59N 45°27' E 012°14'0 0.0
2018-Feb-15 05:29N 45°27' E 012°14'0 0.0
2018-Feb-15 04:59N 45°27' E 012°14'0 0.0
2018-Feb-15 04:29N 45°27' E 012°14'0 0.0
2018-Feb-15 03:59N 45°27' E 012°14'0 0.0
2018-Feb-15 03:29N 45°27' E 012°14'0 0.0
2018-Feb-15 02:59N 45°27' E 012°14'0 0.0
2018-Feb-15 02:29N 45°27' E 012°14'0 0.0
2018-Feb-15 01:59N 45°27' E 012°14'0 0.0
2018-Feb-15 01:29N 45°27' E 012°14'0 0.0
2018-Feb-15 00:59N 45°27' E 012°14'0 0.0
2018-Feb-15 00:26N 45°27' E 012°14'0 0.0
2018-Feb-14 23:59N 45°27' E 012°14'0 0.0
2018-Feb-14 23:29N 45°27' E 012°14'0 0.0
2018-Feb-14 22:59N 45°27' E 012°14'0 0.0
2018-Feb-14 22:29N 45°27' E 012°14'0 0.0
2018-Feb-14 21:59N 45°27' E 012°14'0 0.0
2018-Feb-14 21:29N 45°27' E 012°14'0 0.0
2018-Feb-14 20:59N 45°27' E 012°14'0 0.0
2018-Feb-14 20:29N 45°27' E 012°14'0 0.0
2018-Feb-14 19:59N 45°27' E 012°14'0 0.0
2018-Feb-14 19:29N 45°27' E 012°14'0 0.0
2018-Feb-14 18:59N 45°27' E 012°14'0 0.0
2018-Feb-14 18:29N 45°27' E 012°14'0 0.0
2018-Feb-14 17:56N 45°27' E 012°14'0 0.0
2018-Feb-14 17:29N 45°27' E 012°14'0 0.0
2018-Feb-14 16:59N 45°27' E 012°14'0 0.0
2018-Feb-14 16:26N 45°27' E 012°14'0 0.0
2018-Feb-14 15:59N 45°27' E 012°14'0 0.0
2018-Feb-14 15:29N 45°27' E 012°14'0 0.0
2018-Feb-14 14:59N 45°27' E 012°14'0 0.0
2018-Feb-14 14:29N 45°27' E 012°14'0 0.0
2018-Feb-14 13:59N 45°27' E 012°14'0 0.0
2018-Feb-14 13:29N 45°27' E 012°14'0 0.0
2018-Feb-14 12:59N 45°27' E 012°14'0 0.0
2018-Feb-14 12:29N 45°27' E 012°14'0 0.0
2018-Feb-14 11:59N 45°27' E 012°14'0 0.0
2018-Feb-14 11:29N 45°27' E 012°14'0 0.0
2018-Feb-14 10:59N 45°27' E 012°14'0 0.0
2018-Feb-14 10:29N 45°27' E 012°14'0 0.0
2018-Feb-14 09:59N 45°27' E 012°14'0 0.0
2018-Feb-14 09:26N 45°27' E 012°14'0 0.0
2018-Feb-14 08:59N 45°27' E 012°14'0 0.0
2018-Feb-14 08:29N 45°27' E 012°14'0 0.0
2018-Feb-14 07:59N 45°27' E 012°14'0 0.0
2018-Feb-14 07:30N 45°27' E 012°14'1 2.5
2018-Feb-14 07:00N 45°27' E 012°16'3 6.5
2018-Feb-14 06:30N 45°24' E 012°16'4 7.8
2018-Feb-14 06:00N 45°20' E 012°19'510.8
2018-Feb-14 05:30N 45°18' E 012°26'4 8.0
2018-Feb-14 04:59N 45°17' E 012°31'2 5.1
2018-Feb-14 04:30N 45°18' E 012°34'2 3.0
2018-Feb-14 04:00N 45°19' E 012°36'0 0.5
2018-Feb-14 03:30N 45°19' E 012°37'0 0.4
2018-Feb-14 03:00N 45°19' E 012°37'0 0.4
2018-Feb-14 02:30N 45°18' E 012°37'1 1.0
2018-Feb-14 02:00N 45°18' E 012°36'2 3.9
2018-Feb-14 01:30N 45°19' E 012°33'3 6.6
2018-Feb-14 01:00N 45°16' E 012°33'611.7
2018-Feb-14 00:30N 45°12' E 012°40'612.7
2018-Feb-14 00:00N 45°08' E 012°47'612.5
2018-Feb-13 23:30N 45°03' E 012°52'612.3
2018-Feb-13 23:00N 44°57' E 012°55'612.5
2018-Feb-13 22:30N 44°51' E 012°58'612.7
2018-Feb-13 22:00N 44°46' E 013°02'612.6
2018-Feb-13 21:30N 44°40' E 013°05'612.7
2018-Feb-13 21:00N 44°34' E 013°08'612.6
2018-Feb-13 20:30N 44°28' E 013°10'  

Dump ship's entire track history